createdAt,value
2023-05-05T00:00:02.380Z,54.33
2023-05-05T00:01:02.444Z,54.13
2023-05-05T00:02:02.371Z,54.13
2023-05-05T00:03:02.454Z,54.33
2023-05-05T00:04:02.393Z,54.23
2023-05-05T00:05:02.300Z,54.44
2023-05-05T00:06:02.305Z,54.56
2023-05-05T00:07:02.312Z,54.56
2023-05-05T00:08:03.269Z,54.56
2023-05-05T00:09:02.271Z,54.94
2023-05-05T00:10:02.278Z,54.86
2023-05-05T00:11:02.273Z,54.46
2023-05-05T00:12:02.256Z,54.76
2023-05-05T00:13:02.255Z,54.86
2023-05-05T00:14:02.203Z,55.07
2023-05-05T00:15:03.192Z,55.07
2023-05-05T00:16:02.200Z,54.99
2023-05-05T00:17:02.260Z,55.10
2023-05-05T00:18:03.199Z,55.27
2023-05-05T00:19:02.155Z,55.98
2023-05-05T00:20:02.151Z,55.10
2023-05-05T00:21:03.123Z,54.89
2023-05-05T00:22:02.132Z,55.19
2023-05-05T00:23:02.115Z,54.89
2023-05-05T00:24:02.127Z,54.59
2023-05-05T00:25:02.107Z,54.99
2023-05-05T00:26:02.074Z,54.79
2023-05-05T00:27:02.088Z,55.30
2023-05-05T00:28:02.052Z,54.79
2023-05-05T00:29:02.048Z,54.99
2023-05-05T00:30:02.013Z,54.69
2023-05-05T00:31:02.236Z,54.79
2023-05-05T00:32:02.062Z,54.99
2023-05-05T00:33:02.142Z,55.19
2023-05-05T00:34:02.986Z,56.21
2023-05-05T00:35:01.997Z,55.40
2023-05-05T00:36:01.981Z,55.40
2023-05-05T00:37:01.935Z,55.80
2023-05-05T00:38:02.999Z,55.70
2023-05-05T00:39:01.949Z,55.30
2023-05-05T00:40:01.935Z,55.19
2023-05-05T00:41:01.912Z,56.01
2023-05-05T00:42:01.928Z,55.60
2023-05-05T00:43:01.942Z,55.43
2023-05-05T00:44:01.941Z,55.80
2023-05-05T00:45:01.975Z,57.04
2023-05-05T00:46:02.890Z,56.44
2023-05-05T00:47:01.856Z,56.54
2023-05-05T00:48:01.962Z,56.34
2023-05-05T00:49:01.870Z,56.64
2023-05-05T00:50:02.839Z,57.04
2023-05-05T00:51:01.801Z,56.95
2023-05-05T00:52:01.799Z,56.44
2023-05-05T00:53:02.827Z,56.95
2023-05-05T00:54:01.774Z,56.23
2023-05-05T00:55:01.754Z,56.74
2023-05-05T00:56:01.761Z,56.64
2023-05-05T00:57:01.781Z,56.34
2023-05-05T00:58:01.760Z,56.54
2023-05-05T00:59:01.747Z,56.23
2023-05-05T01:00:01.699Z,56.64
2023-05-05T01:01:01.700Z,56.03
2023-05-05T01:02:01.850Z,56.54
2023-05-05T01:03:01.786Z,56.13
2023-05-05T01:04:01.739Z,56.74
2023-05-05T01:05:01.630Z,56.84
2023-05-05T01:06:01.635Z,56.84
2023-05-05T01:07:01.643Z,56.34
2023-05-05T01:08:01.649Z,56.95
2023-05-05T01:09:01.641Z,56.57
2023-05-05T01:10:18.013Z,56.54
2023-05-05T01:11:02.580Z,56.95
2023-05-05T01:12:01.560Z,56.23
2023-05-05T01:13:02.632Z,56.95
2023-05-05T01:14:01.550Z,56.87
2023-05-05T01:15:02.579Z,56.44
2023-05-05T01:16:01.572Z,56.57
2023-05-05T01:17:01.522Z,57.28
2023-05-05T01:18:01.549Z,56.97
2023-05-05T01:19:01.483Z,56.77
2023-05-05T01:20:02.547Z,56.64
2023-05-05T01:21:01.519Z,56.57
2023-05-05T01:22:01.497Z,56.77
2023-05-05T01:23:01.443Z,56.97
2023-05-05T01:24:01.425Z,57.17
2023-05-05T01:25:01.429Z,56.46
2023-05-05T01:26:01.440Z,56.26
2023-05-05T01:27:01.419Z,56.67
2023-05-05T01:28:01.416Z,56.46
2023-05-05T01:29:01.376Z,56.26
2023-05-05T01:30:02.396Z,56.26
2023-05-05T01:31:02.354Z,56.97
2023-05-05T01:32:01.548Z,56.87
2023-05-05T01:33:01.334Z,56.87
2023-05-05T01:34:02.326Z,56.97
2023-05-05T01:35:01.381Z,56.97
2023-05-05T01:36:01.342Z,56.87
2023-05-05T01:37:01.442Z,58.42
2023-05-05T01:38:01.321Z,58.95
2023-05-05T01:39:01.292Z,59.77
2023-05-05T01:40:02.302Z,60.71
2023-05-05T01:41:01.260Z,60.10
2023-05-05T01:42:01.228Z,60.91
2023-05-05T01:43:01.254Z,60.83
2023-05-05T01:44:01.272Z,61.34
2023-05-05T01:45:02.203Z,61.55
2023-05-05T01:46:01.265Z,61.55
2023-05-05T01:47:01.191Z,61.75
2023-05-05T01:48:01.244Z,61.88
2023-05-05T01:49:01.162Z,62.36
2023-05-05T01:50:01.174Z,62.05
2023-05-05T01:51:01.154Z,62.39
2023-05-05T01:52:01.153Z,62.49
2023-05-05T01:53:01.121Z,62.49
2023-05-05T01:54:01.108Z,62.39
2023-05-05T01:55:01.096Z,62.49
2023-05-05T01:56:02.108Z,62.18
2023-05-05T01:57:02.088Z,62.46
2023-05-05T01:58:02.099Z,62.36
2023-05-05T01:59:02.093Z,62.56
2023-05-05T02:00:01.065Z,62.66
2023-05-05T02:01:01.080Z,62.26
2023-05-05T02:02:01.102Z,62.66
2023-05-05T02:03:01.107Z,62.59
2023-05-05T02:04:01.016Z,62.79
2023-05-05T02:05:02.013Z,62.66
2023-05-05T02:06:01.987Z,62.76
2023-05-05T02:07:00.962Z,62.56
2023-05-05T02:08:00.988Z,62.36
2023-05-05T02:09:00.974Z,62.16
2023-05-05T02:10:00.936Z,62.05
2023-05-05T02:11:00.929Z,61.75
2023-05-05T02:12:01.930Z,61.62
2023-05-05T02:13:01.020Z,61.04
2023-05-05T02:14:00.942Z,61.14
2023-05-05T02:15:00.919Z,61.04
2023-05-05T02:16:00.890Z,60.71
2023-05-05T02:17:00.920Z,60.60
2023-05-05T02:18:00.971Z,60.60
2023-05-05T02:19:00.853Z,60.71
2023-05-05T02:20:00.815Z,60.10
2023-05-05T02:21:01.828Z,60.10
2023-05-05T02:22:00.790Z,58.88
2023-05-05T02:23:00.831Z,59.18
2023-05-05T02:24:00.810Z,58.98
2023-05-05T02:25:00.777Z,58.98
2023-05-05T02:26:00.779Z,59.39
2023-05-05T02:27:00.797Z,59.08
2023-05-05T02:28:00.765Z,59.08
2023-05-05T02:29:00.724Z,59.18
2023-05-05T02:30:00.733Z,59.48
2023-05-05T02:31:00.801Z,58.78
2023-05-05T02:32:00.692Z,58.78
2023-05-05T02:33:02.006Z,58.37
2023-05-05T02:34:00.697Z,58.70
2023-05-05T02:35:00.685Z,58.67
2023-05-05T02:36:00.653Z,58.80
2023-05-05T02:37:00.685Z,58.60
2023-05-05T02:38:00.658Z,58.40
2023-05-05T02:39:01.627Z,58.80
2023-05-05T02:40:00.670Z,58.60
2023-05-05T02:41:00.647Z,58.70
2023-05-05T02:42:00.596Z,58.80
2023-05-05T02:43:00.620Z,58.80
2023-05-05T02:44:00.600Z,58.80
2023-05-05T02:45:00.596Z,58.50
2023-05-05T02:46:00.576Z,58.50
2023-05-05T02:47:01.552Z,58.20
2023-05-05T02:48:00.553Z,57.89
2023-05-05T02:49:00.532Z,58.40
2023-05-05T02:50:01.524Z,57.86
2023-05-05T02:51:00.512Z,58.50
2023-05-05T02:52:00.505Z,58.50
2023-05-05T02:53:01.487Z,58.47
2023-05-05T02:54:00.503Z,58.09
2023-05-05T02:55:00.468Z,58.09
2023-05-05T02:56:00.482Z,57.99
2023-05-05T02:57:00.430Z,57.99
2023-05-05T02:58:00.459Z,57.89
2023-05-05T02:59:01.412Z,57.89
2023-05-05T03:00:00.437Z,57.99
2023-05-05T03:01:00.408Z,58.50
2023-05-05T03:02:00.414Z,58.40
2023-05-05T03:03:00.458Z,57.99
2023-05-05T03:04:00.343Z,57.89
2023-05-05T03:05:01.348Z,57.99
2023-05-05T03:06:00.338Z,57.99
2023-05-05T03:07:00.305Z,57.99
2023-05-05T03:08:00.297Z,57.89
2023-05-05T03:09:00.342Z,57.99
2023-05-05T03:10:00.281Z,57.89
2023-05-05T03:11:01.291Z,58.20
2023-05-05T03:12:00.313Z,58.09
2023-05-05T03:13:00.332Z,58.09
2023-05-05T03:14:00.251Z,58.09
2023-05-05T03:15:00.238Z,58.20
2023-05-05T03:16:00.243Z,57.99
2023-05-05T03:17:00.228Z,58.20
2023-05-05T03:18:01.219Z,58.29
2023-05-05T03:19:00.193Z,58.50
2023-05-05T03:20:02.267Z,57.89
2023-05-05T03:21:00.175Z,57.99
2023-05-05T03:22:01.150Z,57.89
2023-05-05T03:23:00.140Z,57.99
2023-05-05T03:24:00.140Z,57.99
2023-05-05T03:25:00.156Z,58.70
2023-05-05T03:26:00.123Z,58.29
2023-05-05T03:27:00.152Z,58.50
2023-05-05T03:28:00.121Z,57.89
2023-05-05T03:29:00.070Z,58.22
2023-05-05T03:30:00.109Z,58.20
2023-05-05T03:31:00.118Z,58.12
2023-05-05T03:32:00.040Z,58.20
2023-05-05T03:33:00.095Z,57.89
2023-05-05T03:34:00.018Z,57.89
2023-05-05T03:35:00.016Z,58.20
2023-05-05T03:36:00.003Z,57.89
2023-05-05T03:36:59.983Z,58.20
2023-05-05T03:37:59.988Z,58.20
2023-05-05T03:38:59.969Z,58.50
2023-05-05T03:39:59.942Z,57.89
2023-05-05T03:40:59.951Z,57.89
2023-05-05T03:41:59.947Z,58.09
2023-05-05T03:42:59.918Z,58.40
2023-05-05T03:43:59.927Z,57.89
2023-05-05T03:44:59.921Z,58.29
2023-05-05T03:45:59.947Z,58.20
2023-05-05T03:47:00.862Z,57.99
2023-05-05T03:47:59.945Z,57.89
2023-05-05T03:48:59.879Z,58.29
2023-05-05T03:49:59.828Z,57.59
2023-05-05T03:50:59.831Z,57.48
2023-05-05T03:52:00.832Z,57.59
2023-05-05T03:52:59.810Z,57.38
2023-05-05T03:53:59.855Z,57.89
2023-05-05T03:54:59.788Z,57.48
2023-05-05T03:56:00.779Z,57.48
2023-05-05T03:56:59.758Z,57.79
2023-05-05T03:57:59.757Z,57.59
2023-05-05T03:58:59.757Z,57.79
2023-05-05T03:59:59.798Z,57.92
2023-05-05T04:00:59.732Z,58.12
2023-05-05T04:01:59.756Z,57.81
2023-05-05T04:02:59.805Z,58.12
2023-05-05T04:03:59.737Z,58.33
2023-05-05T04:04:59.713Z,58.33
2023-05-05T04:05:59.666Z,58.63
2023-05-05T04:06:59.649Z,58.22
2023-05-05T04:07:59.636Z,57.92
2023-05-05T04:08:59.671Z,57.92
2023-05-05T04:09:59.642Z,58.33
2023-05-05T04:11:00.637Z,58.42
2023-05-05T04:11:59.591Z,58.33
2023-05-05T04:12:59.635Z,57.92
2023-05-05T04:13:59.608Z,58.12
2023-05-05T04:14:59.651Z,58.12
2023-05-05T04:15:59.687Z,58.12
2023-05-05T04:16:59.539Z,58.63
2023-05-05T04:17:59.547Z,58.86
2023-05-05T04:18:59.533Z,58.35
2023-05-05T04:19:59.512Z,58.35
2023-05-05T04:20:59.629Z,58.45
2023-05-05T04:22:00.490Z,58.76
2023-05-05T04:22:59.462Z,58.96
2023-05-05T04:23:59.461Z,58.35
2023-05-05T04:24:59.489Z,58.35
2023-05-05T04:25:59.447Z,58.65
2023-05-05T04:26:59.455Z,58.65
2023-05-05T04:27:59.460Z,57.95
2023-05-05T04:29:00.440Z,58.65
2023-05-05T04:29:59.410Z,59.77
2023-05-05T04:30:59.428Z,58.96
2023-05-05T04:31:59.411Z,59.88
2023-05-05T04:32:59.447Z,59.06
2023-05-05T04:33:59.350Z,59.27
2023-05-05T04:34:59.386Z,58.76
2023-05-05T04:35:59.354Z,58.65
2023-05-05T04:36:59.333Z,58.56
2023-05-05T04:37:59.332Z,58.45
2023-05-05T04:38:59.338Z,58.35
2023-05-05T04:39:59.315Z,58.86
2023-05-05T04:40:59.283Z,58.22
2023-05-05T04:41:59.271Z,58.56
2023-05-05T04:42:59.286Z,58.45
2023-05-05T04:43:59.262Z,58.35
2023-05-05T04:44:59.253Z,58.76
2023-05-05T04:45:59.226Z,58.86
2023-05-05T04:46:59.193Z,59.19
2023-05-05T04:47:59.238Z,59.19
2023-05-05T04:48:59.205Z,59.19
2023-05-05T04:49:59.209Z,59.06
2023-05-05T04:50:59.198Z,59.16
2023-05-05T04:51:59.192Z,59.06
2023-05-05T04:52:59.140Z,58.73
2023-05-05T04:53:59.154Z,58.12
2023-05-05T04:54:59.165Z,58.29
2023-05-05T04:55:59.143Z,58.20
2023-05-05T04:56:59.111Z,57.99
2023-05-05T04:57:59.120Z,57.79
2023-05-05T04:58:59.070Z,57.99
2023-05-05T05:00:00.150Z,57.59
2023-05-05T05:01:00.035Z,57.68
2023-05-05T05:01:59.085Z,56.74
2023-05-05T05:02:59.103Z,56.54
2023-05-05T05:03:59.166Z,56.77
2023-05-05T05:04:59.021Z,57.05
2023-05-05T05:06:00.007Z,56.67
2023-05-05T05:06:59.433Z,56.85
2023-05-05T05:07:58.993Z,57.25
2023-05-05T05:08:58.968Z,56.34
2023-05-05T05:09:58.957Z,56.13
2023-05-05T05:10:58.950Z,56.11
2023-05-05T05:11:58.943Z,56.62
2023-05-05T05:12:58.953Z,56.41
2023-05-05T05:13:59.032Z,56.82
2023-05-05T05:14:58.893Z,56.41
2023-05-05T05:15:58.957Z,56.41
2023-05-05T05:16:59.879Z,55.50
2023-05-05T05:17:58.940Z,55.80
2023-05-05T05:19:01.462Z,55.60
2023-05-05T05:19:58.862Z,55.78
2023-05-05T05:20:58.831Z,54.97
2023-05-05T05:21:58.881Z,54.97
2023-05-05T05:22:58.830Z,55.37
2023-05-05T05:23:58.813Z,55.37
2023-05-05T05:24:58.808Z,54.84
2023-05-05T05:25:58.801Z,54.84
2023-05-05T05:26:59.777Z,54.64
2023-05-05T05:28:09.386Z,54.61
2023-05-05T05:28:59.777Z,53.30
2023-05-05T05:29:58.732Z,53.98
2023-05-05T05:30:58.743Z,53.07
2023-05-05T05:31:58.803Z,53.47
2023-05-05T05:32:58.735Z,53.37
2023-05-05T05:33:59.713Z,53.17
2023-05-05T05:34:58.672Z,53.27
2023-05-05T05:35:58.690Z,53.25
2023-05-05T05:36:58.670Z,53.45
2023-05-05T05:37:58.667Z,53.45
2023-05-05T05:38:58.638Z,52.81
2023-05-05T05:39:58.627Z,52.92
2023-05-05T05:40:59.636Z,52.81
2023-05-05T05:41:58.609Z,53.22
2023-05-05T05:42:59.582Z,53.22
2023-05-05T05:43:58.578Z,52.69
2023-05-05T05:44:58.583Z,52.89
2023-05-05T05:45:58.578Z,52.59
2023-05-05T05:46:58.564Z,52.28
2023-05-05T05:47:58.589Z,52.59
2023-05-05T05:48:58.537Z,52.16
2023-05-05T05:49:59.556Z,51.55
2023-05-05T05:50:58.499Z,51.76
2023-05-05T05:51:59.511Z,52.36
2023-05-05T05:52:58.487Z,51.15
2023-05-05T05:53:59.465Z,51.45
2023-05-05T05:54:59.483Z,52.46
2023-05-05T05:55:58.445Z,51.35
2023-05-05T05:56:59.472Z,51.35
2023-05-05T05:57:59.433Z,51.53
2023-05-05T05:58:58.469Z,51.12
2023-05-05T06:00:00.405Z,51.03
2023-05-05T06:00:59.404Z,51.12
2023-05-05T06:01:58.402Z,50.62
2023-05-05T06:02:58.482Z,50.42
2023-05-05T06:03:58.419Z,51.00
2023-05-05T06:04:58.355Z,50.59
2023-05-05T06:05:58.352Z,50.19
2023-05-05T06:06:59.335Z,50.29
2023-05-05T06:07:58.320Z,50.67
2023-05-05T06:08:58.319Z,50.78
2023-05-05T06:10:02.905Z,50.47
2023-05-05T06:10:59.308Z,50.37
2023-05-05T06:11:58.263Z,50.45
2023-05-05T06:12:58.279Z,49.87
2023-05-05T06:13:58.305Z,49.96
2023-05-05T06:14:58.244Z,50.15
2023-05-05T06:15:58.294Z,50.04
2023-05-05T06:16:58.219Z,49.33
2023-05-05T06:17:59.279Z,49.24
2023-05-05T06:18:58.265Z,50.07
2023-05-05T06:19:59.173Z,49.33
2023-05-05T06:20:58.206Z,49.24
2023-05-05T06:21:58.157Z,48.83
2023-05-05T06:22:58.181Z,49.24
2023-05-05T06:23:59.189Z,48.83
2023-05-05T06:24:58.141Z,49.24
2023-05-05T06:25:58.128Z,48.96
2023-05-05T06:26:58.137Z,49.05
2023-05-05T06:27:58.096Z,48.96
2023-05-05T06:28:58.085Z,49.56
2023-05-05T06:29:58.317Z,49.84
2023-05-05T06:30:58.147Z,49.01
2023-05-05T06:31:58.046Z,48.71
2023-05-05T06:32:58.110Z,49.21
2023-05-05T06:33:58.034Z,49.11
2023-05-05T06:34:59.050Z,49.01
2023-05-05T06:35:58.049Z,49.62
2023-05-05T06:36:57.982Z,48.81
2023-05-05T06:37:58.027Z,49.11
2023-05-05T06:38:57.982Z,48.81
2023-05-05T06:39:59.024Z,49.01
2023-05-05T06:40:57.974Z,49.31
2023-05-05T06:41:57.946Z,49.29
2023-05-05T06:42:57.932Z,49.49
2023-05-05T06:43:57.934Z,48.99
2023-05-05T06:44:57.931Z,48.69
2023-05-05T06:45:57.921Z,48.49
2023-05-05T06:46:59.038Z,48.18
2023-05-05T06:47:58.964Z,47.66
2023-05-05T06:48:58.865Z,47.96
2023-05-05T06:49:57.869Z,47.86
2023-05-05T06:50:57.841Z,48.08
2023-05-05T06:51:58.830Z,47.67
2023-05-05T06:52:57.842Z,48.96
2023-05-05T06:53:57.813Z,48.26
2023-05-05T06:54:57.831Z,47.96
2023-05-05T06:55:57.896Z,48.06
2023-05-05T06:56:59.424Z,48.03
2023-05-05T06:57:57.776Z,48.24
2023-05-05T06:58:58.746Z,48.14
2023-05-05T06:59:57.753Z,47.83
2023-05-05T07:00:57.764Z,47.81
2023-05-05T07:01:57.724Z,47.20
2023-05-05T07:02:58.760Z,47.61
2023-05-05T07:03:57.757Z,47.59
2023-05-05T07:04:57.925Z,48.39
2023-05-05T07:05:57.686Z,46.88
2023-05-05T07:06:57.665Z,46.88
2023-05-05T07:07:57.669Z,47.39
2023-05-05T07:08:57.666Z,47.39
2023-05-05T07:09:58.658Z,46.96
2023-05-05T07:10:57.636Z,46.86
2023-05-05T07:11:57.692Z,46.78
2023-05-05T07:12:57.639Z,46.98
2023-05-05T07:13:58.612Z,46.86
2023-05-05T07:14:57.596Z,46.68
2023-05-05T07:15:57.569Z,47.26
2023-05-05T07:16:57.832Z,46.46
2023-05-05T07:17:58.666Z,46.44
2023-05-05T07:18:57.554Z,46.94
2023-05-05T07:19:57.549Z,46.23
2023-05-05T07:20:58.505Z,47.04
2023-05-05T07:21:57.534Z,45.73
2023-05-05T07:22:57.496Z,45.91
2023-05-05T07:23:57.503Z,45.39
2023-05-05T07:24:57.492Z,46.22
2023-05-05T07:25:57.452Z,45.89
2023-05-05T07:26:57.493Z,45.89
2023-05-05T07:27:57.540Z,46.07
2023-05-05T07:28:57.436Z,45.26
2023-05-05T07:29:57.438Z,46.07
2023-05-05T07:30:58.424Z,45.77
2023-05-05T07:31:57.416Z,45.75
2023-05-05T07:32:58.431Z,44.84
2023-05-05T07:33:57.363Z,44.74
2023-05-05T07:34:57.380Z,44.74
2023-05-05T07:35:57.363Z,43.74
2023-05-05T07:36:58.363Z,44.14
2023-05-05T07:37:57.340Z,44.04
2023-05-05T07:38:57.311Z,44.34
2023-05-05T07:39:58.314Z,44.32
2023-05-05T07:40:57.279Z,43.72
2023-05-05T07:41:57.310Z,43.80
2023-05-05T07:42:57.276Z,44.12
2023-05-05T07:43:57.509Z,44.00
2023-05-05T07:44:57.255Z,43.40
2023-05-05T07:45:57.319Z,44.00
2023-05-05T07:46:58.225Z,42.72
2023-05-05T07:47:57.300Z,44.22
2023-05-05T07:48:57.236Z,44.12
2023-05-05T07:49:58.177Z,44.30
2023-05-05T07:50:57.227Z,43.80
2023-05-05T07:51:57.158Z,44.08
2023-05-05T07:53:06.141Z,43.68
2023-05-05T07:53:58.161Z,43.27
2023-05-05T07:54:58.152Z,42.77
2023-05-05T07:55:57.171Z,42.76
2023-05-05T07:56:57.118Z,43.05
2023-05-05T07:57:57.112Z,43.26
2023-05-05T07:58:57.106Z,43.04
2023-05-05T07:59:57.172Z,44.66
2023-05-05T08:00:57.077Z,42.83
2023-05-05T08:01:57.075Z,41.83
2023-05-05T08:02:57.121Z,42.03
2023-05-05T08:03:57.171Z,42.13
2023-05-05T08:04:57.025Z,42.85
2023-05-05T08:05:58.035Z,41.53
2023-05-05T08:06:58.012Z,41.61
2023-05-05T08:07:57.031Z,41.83
2023-05-05T08:08:56.971Z,41.83
2023-05-05T08:09:57.996Z,41.21
2023-05-05T08:10:56.962Z,41.21
2023-05-05T08:11:56.959Z,41.61
2023-05-05T08:12:57.964Z,41.41
2023-05-05T08:13:56.962Z,41.31
2023-05-05T08:14:56.919Z,40.71
2023-05-05T08:15:57.063Z,41.91
2023-05-05T08:16:56.925Z,41.21
2023-05-05T08:17:56.918Z,40.81
2023-05-05T08:18:56.927Z,40.31
2023-05-05T08:19:56.871Z,40.11
2023-05-05T08:20:57.871Z,41.69
2023-05-05T08:21:57.477Z,41.49
2023-05-05T08:22:56.833Z,41.49
2023-05-05T08:23:57.840Z,41.97
2023-05-05T08:24:57.822Z,41.08
2023-05-05T08:25:57.791Z,40.67
2023-05-05T08:26:56.802Z,40.67
2023-05-05T08:27:56.811Z,40.08
2023-05-05T08:28:56.793Z,40.58
2023-05-05T08:29:56.762Z,40.67
2023-05-05T08:30:57.758Z,40.25
2023-05-05T08:31:56.960Z,41.36
2023-05-05T08:32:56.854Z,40.56
2023-05-05T08:33:56.716Z,40.56
2023-05-05T08:34:56.714Z,40.75
2023-05-05T08:35:57.692Z,40.66
2023-05-05T08:36:56.712Z,40.25
2023-05-05T08:37:58.880Z,41.44
2023-05-05T08:38:56.652Z,41.16
2023-05-05T08:39:56.673Z,41.24
2023-05-05T08:40:56.650Z,40.14
2023-05-05T08:41:56.693Z,40.53
2023-05-05T08:42:56.652Z,40.53
2023-05-05T08:43:56.596Z,40.14
2023-05-05T08:44:57.784Z,40.42
2023-05-05T08:45:56.593Z,39.32
2023-05-05T08:46:56.610Z,39.84
2023-05-05T08:47:56.886Z,39.12
2023-05-05T08:48:56.572Z,40.81
2023-05-05T08:49:56.540Z,39.24
2023-05-05T08:50:57.374Z,40.94
2023-05-05T08:51:57.533Z,40.75
2023-05-05T08:52:56.525Z,39.54
2023-05-05T08:53:56.521Z,39.24
2023-05-05T08:54:56.505Z,40.64
2023-05-05T08:55:56.510Z,39.56
2023-05-05T08:56:56.478Z,39.64
2023-05-05T08:57:57.510Z,39.14
2023-05-05T08:58:56.460Z,41.03
2023-05-05T08:59:56.457Z,40.12
2023-05-05T09:00:56.495Z,40.32
2023-05-05T09:01:56.419Z,39.82
2023-05-05T09:02:56.642Z,40.50
2023-05-05T09:03:56.521Z,39.48
2023-05-05T09:04:56.385Z,39.38
2023-05-05T09:05:56.379Z,38.48
2023-05-05T09:06:56.352Z,38.89
2023-05-05T09:07:56.391Z,38.90
2023-05-05T09:08:57.597Z,38.98
2023-05-05T09:09:56.314Z,38.67
2023-05-05T09:10:56.334Z,38.67
2023-05-05T09:11:56.330Z,38.86
2023-05-05T09:12:56.305Z,39.36
2023-05-05T09:13:56.753Z,38.54
2023-05-05T09:14:59.042Z,37.97
2023-05-05T09:15:56.254Z,37.37
2023-05-05T09:16:56.293Z,38.07
2023-05-05T09:17:56.246Z,37.95
2023-05-05T09:18:56.236Z,37.85
2023-05-05T09:19:56.315Z,37.93
2023-05-05T09:20:58.136Z,39.04
2023-05-05T09:21:56.201Z,38.13
2023-05-05T09:22:56.198Z,38.63
2023-05-05T09:23:58.532Z,38.03
2023-05-05T09:24:57.162Z,36.74
2023-05-05T09:25:57.142Z,37.05
2023-05-05T09:26:58.553Z,37.13
2023-05-05T09:27:56.137Z,37.34
2023-05-05T09:28:57.122Z,37.12
2023-05-05T09:29:57.100Z,37.41
2023-05-05T09:30:56.105Z,36.02
2023-05-05T09:31:56.086Z,36.12
2023-05-05T09:33:03.768Z,35.41
2023-05-05T09:33:56.060Z,36.21
2023-05-05T09:34:56.069Z,37.30
2023-05-05T09:35:56.114Z,36.50
2023-05-05T09:36:56.026Z,36.90
2023-05-05T09:37:56.043Z,35.91
2023-05-05T09:38:58.305Z,35.71
2023-05-05T09:39:57.029Z,36.00
2023-05-05T09:40:55.974Z,34.61
2023-05-05T09:41:55.988Z,34.91
2023-05-05T09:42:55.966Z,35.61
2023-05-05T09:43:55.992Z,35.31
2023-05-05T09:44:57.822Z,36.10
2023-05-05T09:45:56.000Z,35.01
2023-05-05T09:46:55.914Z,34.81
2023-05-05T09:47:59.545Z,35.91
2023-05-05T09:48:56.910Z,35.79
2023-05-05T09:49:56.891Z,35.29
2023-05-05T09:50:56.906Z,35.19
2023-05-05T09:51:55.894Z,34.80
2023-05-05T09:52:55.885Z,34.80
2023-05-05T09:53:55.842Z,33.50
2023-05-05T09:54:55.840Z,34.99
2023-05-05T09:55:55.862Z,34.58
2023-05-05T09:56:55.814Z,33.48
2023-05-05T09:57:55.865Z,33.90
2023-05-05T09:58:57.078Z,33.40
2023-05-05T09:59:55.768Z,33.80
2023-05-05T10:00:55.782Z,33.52
2023-05-05T10:01:55.846Z,33.92
2023-05-05T10:02:55.768Z,33.20
2023-05-05T10:03:56.732Z,33.81
2023-05-05T10:04:55.735Z,33.30
2023-05-05T10:05:55.790Z,31.23
2023-05-05T10:06:56.703Z,31.53
2023-05-05T10:07:55.811Z,32.60
2023-05-05T10:08:55.682Z,33.00
2023-05-05T10:09:56.660Z,33.00
2023-05-05T10:10:55.667Z,32.60
2023-05-05T10:11:55.645Z,32.90
2023-05-05T10:12:56.644Z,31.63
2023-05-05T10:13:55.613Z,32.92
2023-05-05T10:14:55.615Z,33.00
2023-05-05T10:15:56.717Z,31.83
2023-05-05T10:16:55.578Z,31.83
2023-05-05T10:18:07.056Z,31.61
2023-05-05T10:18:56.566Z,31.12
2023-05-05T10:19:55.563Z,32.51
2023-05-05T10:20:55.547Z,33.30
2023-05-05T10:21:56.530Z,32.69
2023-05-05T10:22:55.561Z,32.29
2023-05-05T10:23:56.889Z,32.57
2023-05-05T10:24:55.488Z,32.48
2023-05-05T10:25:55.503Z,32.67
2023-05-05T10:26:55.510Z,32.86
2023-05-05T10:27:55.466Z,32.97
2023-05-05T10:28:55.481Z,31.57
2023-05-05T10:29:55.459Z,31.48
2023-05-05T10:30:55.430Z,31.27
2023-05-05T10:31:55.474Z,32.46
2023-05-05T10:33:55.588Z,31.77
2023-05-05T10:34:55.508Z,31.75
2023-05-05T10:35:55.379Z,30.97
2023-05-05T10:36:56.379Z,31.17
2023-05-05T10:37:55.374Z,31.27
2023-05-05T10:38:55.378Z,31.87
2023-05-05T10:39:55.441Z,32.36
2023-05-05T10:40:55.397Z,31.65
2023-05-05T10:41:55.304Z,31.55
2023-05-05T10:42:55.308Z,29.28
2023-05-05T10:43:55.324Z,30.57
2023-05-05T10:44:56.304Z,31.58
2023-05-05T10:45:55.502Z,31.09
2023-05-05T10:46:55.298Z,31.17
2023-05-05T10:47:55.297Z,31.87
2023-05-05T10:48:55.273Z,31.78
2023-05-05T10:49:55.216Z,30.69
2023-05-05T10:50:55.245Z,29.99
2023-05-05T10:51:55.191Z,31.68
2023-05-05T10:52:55.210Z,31.29
2023-05-05T10:53:55.227Z,31.29
2023-05-05T10:54:55.168Z,31.77
2023-05-05T10:55:56.290Z,31.77
2023-05-05T10:56:55.192Z,31.96
2023-05-05T10:57:55.152Z,31.87
2023-05-05T10:59:00.137Z,31.77
2023-05-05T10:59:56.133Z,32.56
2023-05-05T11:00:56.137Z,31.67
2023-05-05T11:01:55.126Z,32.45
2023-05-05T11:02:55.116Z,32.76
2023-05-05T11:03:56.708Z,31.95
2023-05-05T11:04:55.065Z,32.64
2023-05-05T11:05:56.044Z,31.84
2023-05-05T11:06:55.055Z,32.82
2023-05-05T11:07:55.038Z,32.14
2023-05-05T11:08:55.024Z,32.53
2023-05-05T11:09:55.004Z,32.45
2023-05-05T11:10:54.987Z,31.95
2023-05-05T11:11:55.207Z,32.54
2023-05-05T11:12:55.018Z,33.24
2023-05-05T11:13:54.988Z,33.44
2023-05-05T11:14:54.962Z,35.52
2023-05-05T11:15:54.957Z,34.63
2023-05-05T11:16:54.980Z,32.45
2023-05-05T11:17:54.973Z,31.65
2023-05-05T11:18:55.920Z,31.35
2023-05-05T11:19:54.897Z,31.63
2023-05-05T11:20:54.898Z,31.15
2023-05-05T11:21:54.900Z,30.96
2023-05-05T11:22:55.864Z,31.95
2023-05-05T11:23:54.864Z,30.26
2023-05-05T11:24:54.833Z,31.85
2023-05-05T11:25:55.830Z,31.75
2023-05-05T11:26:54.828Z,31.45
2023-05-05T11:27:54.861Z,30.96
2023-05-05T11:28:54.809Z,31.34
2023-05-05T11:29:54.800Z,32.33
2023-05-05T11:30:54.873Z,33.24
2023-05-05T11:31:54.778Z,32.94
2023-05-05T11:32:54.885Z,33.42
2023-05-05T11:33:54.763Z,31.84
2023-05-05T11:34:54.728Z,30.35
2023-05-05T11:35:55.767Z,30.07
2023-05-05T11:36:55.727Z,30.05
2023-05-05T11:37:54.720Z,30.05
2023-05-05T11:38:54.676Z,30.05
2023-05-05T11:39:55.690Z,31.84
2023-05-05T11:40:54.683Z,31.54
2023-05-05T11:41:55.671Z,31.35
2023-05-05T11:42:55.666Z,31.15
2023-05-05T11:43:54.851Z,31.05
2023-05-05T11:44:54.640Z,29.96
2023-05-05T11:45:54.694Z,29.57
2023-05-05T11:46:54.613Z,28.79
2023-05-05T11:47:55.078Z,29.48
2023-05-05T11:48:54.577Z,30.08
2023-05-05T11:49:54.574Z,29.68
2023-05-05T11:50:55.567Z,29.98
2023-05-05T11:51:54.552Z,29.88
2023-05-05T11:52:54.624Z,31.37
2023-05-05T11:53:54.511Z,31.75
2023-05-05T11:54:54.548Z,31.26
2023-05-05T11:55:54.495Z,31.27
2023-05-05T11:56:54.521Z,31.35
2023-05-05T11:57:54.492Z,30.77
2023-05-05T11:58:54.467Z,31.07
2023-05-05T11:59:54.499Z,30.96
2023-05-05T12:00:54.487Z,31.15
2023-05-05T12:01:54.457Z,30.57
2023-05-05T12:02:54.564Z,30.68
2023-05-05T12:03:54.528Z,29.78
2023-05-05T12:04:54.470Z,29.88
2023-05-05T12:05:54.388Z,30.57
2023-05-05T12:06:54.379Z,30.87
2023-05-05T12:07:54.360Z,29.88
2023-05-05T12:08:55.402Z,31.07
2023-05-05T12:09:54.349Z,31.57
2023-05-05T12:10:55.346Z,31.17
2023-05-05T12:11:54.357Z,30.16
2023-05-05T12:12:55.510Z,30.66
2023-05-05T12:13:54.320Z,31.17
2023-05-05T12:14:55.305Z,31.75
2023-05-05T12:15:54.607Z,32.15
2023-05-05T12:16:54.263Z,31.75
2023-05-05T12:17:54.359Z,31.75
2023-05-05T12:18:54.317Z,31.67
2023-05-05T12:19:54.264Z,31.77
2023-05-05T12:20:55.252Z,32.96
2023-05-05T12:21:55.238Z,31.96
2023-05-05T12:22:54.226Z,32.56
2023-05-05T12:23:54.243Z,32.76
2023-05-05T12:24:55.008Z,32.26
2023-05-05T12:25:54.193Z,32.15
2023-05-05T12:26:54.186Z,32.94
2023-05-05T12:27:54.150Z,32.63
2023-05-05T12:28:54.166Z,32.53
2023-05-05T12:29:55.154Z,31.75
2023-05-05T12:30:55.101Z,32.93
2023-05-05T12:31:54.397Z,31.84
2023-05-05T12:32:54.148Z,32.03
2023-05-05T12:33:54.088Z,31.84
2023-05-05T12:34:55.086Z,32.93
2023-05-05T12:35:54.086Z,31.84
2023-05-05T12:36:54.066Z,32.93
2023-05-05T12:37:55.108Z,31.84
2023-05-05T12:38:54.046Z,33.03
2023-05-05T12:39:55.111Z,33.62
2023-05-05T12:40:55.012Z,32.82
2023-05-05T12:41:54.015Z,32.93
2023-05-05T12:42:53.984Z,33.24
2023-05-05T12:43:54.083Z,32.73
2023-05-05T12:44:55.046Z,33.12
2023-05-05T12:45:54.044Z,33.11
2023-05-05T12:46:53.962Z,32.51
2023-05-05T12:47:54.080Z,33.50
2023-05-05T12:48:53.935Z,32.91
2023-05-05T12:49:54.935Z,32.91
2023-05-05T12:50:53.911Z,33.19
2023-05-05T12:51:53.909Z,32.91
2023-05-05T12:52:53.881Z,33.01